Terminal Aerodrome Forecast
Issued by NWS Tuscon, AZ

Home | Current Version | Previous Version | Text Only | Print | Product List | Glossary On
Versions: 1 2 3 4 5 6 7 8 9 10 11 12 13 14 15
000
FTUS45 KTWC 310500
TAFTUS
TAF
KTUS 310520Z 3106/0106 13005KT P6SM FEW120 BKN200
     FM312000 28010KT P6SM SCT100
     FM010300 24007KT P6SM BKN200=

USA.gov is the U.S. government's official web portal to all federal, state and local government web resources and services.